createdAt,value
2018-05-23T00:00:22.770Z,0
2018-05-23T00:01:24.768Z,0
2018-05-23T00:02:26.745Z,0
2018-05-23T00:03:28.748Z,0
2018-05-23T00:04:30.746Z,0
2018-05-23T00:05:32.745Z,0
2018-05-23T00:06:34.741Z,0
2018-05-23T00:07:37.407Z,0
2018-05-23T00:08:39.409Z,0
2018-05-23T00:09:41.397Z,0
2018-05-23T00:10:43.395Z,0
2018-05-23T00:11:45.401Z,0
2018-05-23T00:12:47.397Z,0
2018-05-23T00:13:49.394Z,0
2018-05-23T00:14:51.387Z,0
2018-05-23T00:15:53.382Z,0
2018-05-23T00:16:55.382Z,0
2018-05-23T00:17:57.380Z,0
2018-05-23T00:18:59.373Z,0
2018-05-23T00:20:01.374Z,0
2018-05-23T00:21:03.760Z,0
2018-05-23T00:22:05.755Z,0
2018-05-23T00:23:07.754Z,0
2018-05-23T00:24:09.754Z,0
2018-05-23T00:25:12.032Z,0
2018-05-23T00:26:14.021Z,0
2018-05-23T00:27:16.404Z,0
2018-05-23T00:28:18.396Z,0
2018-05-23T00:29:20.395Z,0
2018-05-23T00:30:22.395Z,0
2018-05-23T00:31:24.384Z,0
2018-05-23T00:32:26.770Z,0
2018-05-23T00:33:28.763Z,0
2018-05-23T00:34:30.753Z,0
2018-05-23T00:35:32.765Z,0
2018-05-23T00:36:34.765Z,0
2018-05-23T00:37:37.117Z,0
2018-05-23T00:38:39.111Z,0
2018-05-23T00:39:41.114Z,0
2018-05-23T00:40:43.111Z,0
2018-05-23T00:41:45.110Z,0
2018-05-23T00:42:47.103Z,0
2018-05-23T00:43:49.487Z,0
2018-05-23T00:44:51.471Z,0
2018-05-23T00:45:53.469Z,0
2018-05-23T00:46:55.752Z,0
2018-05-23T00:47:57.752Z,0
2018-05-23T00:48:59.749Z,0
2018-05-23T00:50:01.741Z,0
2018-05-23T00:51:03.743Z,0
2018-05-23T00:52:05.749Z,0
2018-05-23T00:53:07.744Z,0
2018-05-23T00:54:09.735Z,0
2018-05-23T00:55:12.018Z,0
2018-05-23T00:56:14.015Z,0
2018-05-23T00:57:16.024Z,0
2018-05-23T00:58:18.296Z,0
2018-05-23T00:59:20.294Z,0
2018-05-23T01:00:22.293Z,0
2018-05-23T01:01:24.289Z,0
2018-05-23T01:02:26.291Z,0
2018-05-23T01:03:28.285Z,0
2018-05-23T01:04:30.287Z,0
2018-05-23T01:05:32.281Z,0
2018-05-23T01:06:34.263Z,0
2018-05-23T01:07:36.267Z,0
2018-05-23T01:08:38.270Z,0
2018-05-23T01:09:40.255Z,0
2018-05-23T01:10:42.254Z,0
2018-05-23T01:11:44.635Z,0
2018-05-23T01:12:46.926Z,0
2018-05-23T01:13:49.305Z,0
2018-05-23T01:14:51.688Z,0
2018-05-23T01:15:53.684Z,0
2018-05-23T01:16:55.676Z,0
2018-05-23T01:17:57.672Z,0
2018-05-23T01:18:59.960Z,0
2018-05-23T01:20:02.241Z,0
2018-05-23T01:21:04.228Z,0
2018-05-23T01:22:06.225Z,0
2018-05-23T01:23:08.227Z,0
2018-05-23T01:24:10.218Z,0
2018-05-23T01:25:12.216Z,0
2018-05-23T01:26:14.495Z,0
2018-05-23T01:27:16.496Z,0
2018-05-23T01:28:18.499Z,0
2018-05-23T01:29:20.496Z,0
2018-05-23T01:30:22.481Z,0
2018-05-23T01:31:24.475Z,0
2018-05-23T01:32:26.485Z,0
2018-05-23T01:33:28.479Z,0
2018-05-23T01:34:30.863Z,0
2018-05-23T01:35:32.853Z,0
2018-05-23T01:36:35.145Z,0
2018-05-23T01:37:37.436Z,0
2018-05-23T01:38:39.425Z,0
2018-05-23T01:39:41.438Z,0
2018-05-23T01:40:43.433Z,0
2018-05-23T01:41:45.427Z,0
2018-05-23T01:42:47.703Z,0
2018-05-23T01:43:50.365Z,0
2018-05-23T01:44:52.747Z,0
2018-05-23T01:45:55.035Z,0
2018-05-23T01:46:57.021Z,0
2018-05-23T01:47:59.407Z,0
2018-05-23T01:49:01.682Z,0
2018-05-23T01:50:03.984Z,0
2018-05-23T01:51:06.289Z,0
2018-05-23T01:52:08.282Z,0
2018-05-23T01:53:10.280Z,0
2018-05-23T01:54:12.283Z,0
2018-05-23T01:55:14.290Z,0
2018-05-23T01:56:16.591Z,0
2018-05-23T01:57:18.574Z,0
2018-05-23T01:58:20.580Z,0
2018-05-23T01:59:22.576Z,0
2018-05-23T02:00:24.571Z,0
2018-05-23T02:01:26.563Z,0
2018-05-23T02:02:28.558Z,0
2018-05-23T02:03:30.555Z,0
2018-05-23T02:04:33.629Z,0
2018-05-23T02:05:35.616Z,0
2018-05-23T02:06:37.615Z,0
2018-05-23T02:07:40.008Z,0
2018-05-23T02:08:42.005Z,0
2018-05-23T02:09:44.680Z,0
2018-05-23T02:10:46.671Z,0
2018-05-23T02:11:49.334Z,0
2018-05-23T02:12:51.341Z,0
2018-05-23T02:13:53.616Z,0
2018-05-23T02:14:56.290Z,0
2018-05-23T02:15:58.295Z,0
2018-05-23T02:17:00.280Z,0
2018-05-23T02:18:02.276Z,0
2018-05-23T02:19:04.555Z,0
2018-05-23T02:20:06.833Z,0
2018-05-23T02:21:09.114Z,0
2018-05-23T02:22:11.102Z,0
2018-05-23T02:23:13.102Z,0
2018-05-23T02:24:15.768Z,0
2018-05-23T02:25:18.330Z,0
2018-05-23T02:26:20.325Z,0
2018-05-23T02:27:22.335Z,0
2018-05-23T02:28:24.329Z,0
2018-05-23T02:29:26.309Z,0
2018-05-23T02:30:28.308Z,0
2018-05-23T02:31:30.317Z,0
2018-05-23T02:32:32.305Z,0
2018-05-23T02:33:34.589Z,0
2018-05-23T02:34:36.582Z,0
2018-05-23T02:35:38.963Z,0
2018-05-23T02:36:41.229Z,0
2018-05-23T02:37:43.525Z,0
2018-05-23T02:38:45.917Z,0
2018-05-23T02:39:48.187Z,0
2018-05-23T02:40:50.472Z,0
2018-05-23T02:41:52.767Z,0
2018-05-23T02:42:54.763Z,0
2018-05-23T02:43:56.765Z,0
2018-05-23T02:44:58.766Z,0
2018-05-23T02:46:01.055Z,0
2018-05-23T02:47:03.091Z,0
2018-05-23T02:48:05.914Z,0
2018-05-23T02:49:08.189Z,0
2018-05-23T02:50:10.180Z,0
2018-05-23T02:51:12.840Z,0
2018-05-23T02:52:15.128Z,0
2018-05-23T02:53:17.506Z,1
2018-05-23T02:54:19.494Z,1
2018-05-23T02:55:21.783Z,1
2018-05-23T02:56:24.339Z,1
2018-05-23T02:57:26.889Z,1
2018-05-23T02:58:29.278Z,1
2018-05-23T02:59:31.558Z,1
2018-05-23T03:00:33.550Z,1
2018-05-23T03:01:35.542Z,1
2018-05-23T03:02:37.839Z,2
2018-05-23T03:03:39.840Z,2
2018-05-23T03:04:41.832Z,2
2018-05-23T03:05:44.130Z,2
2018-05-23T03:06:46.508Z,2
2018-05-23T03:07:48.507Z,2
2018-05-23T03:08:50.774Z,2
2018-05-23T03:09:52.770Z,3
2018-05-23T03:10:55.042Z,3
2018-05-23T03:11:57.049Z,3
2018-05-23T03:12:59.319Z,3
2018-05-23T03:14:01.316Z,3
2018-05-23T03:15:03.310Z,4
2018-05-23T03:16:05.315Z,4
2018-05-23T03:17:07.608Z,4
2018-05-23T03:18:09.618Z,4
2018-05-23T03:19:11.903Z,4
2018-05-23T03:20:13.905Z,5
2018-05-23T03:21:16.178Z,5
2018-05-23T03:22:18.168Z,5
2018-05-23T03:23:20.167Z,5
2018-05-23T03:24:22.161Z,6
2018-05-23T03:25:24.157Z,6
2018-05-23T03:26:26.431Z,6
2018-05-23T03:27:28.805Z,6
2018-05-23T03:28:30.809Z,7
2018-05-23T03:29:33.088Z,7
2018-05-23T03:30:35.079Z,7
2018-05-23T03:31:37.373Z,7
2018-05-23T03:32:39.953Z,8
2018-05-23T03:33:41.955Z,8
2018-05-23T03:34:44.230Z,8
2018-05-23T03:35:46.228Z,8
2018-05-23T03:36:48.520Z,9
2018-05-23T03:37:50.495Z,9
2018-05-23T03:38:52.496Z,9
2018-05-23T03:39:54.493Z,9
2018-05-23T03:40:56.491Z,10
2018-05-23T03:41:58.491Z,10
2018-05-23T03:43:00.501Z,10
2018-05-23T03:44:02.491Z,10
2018-05-23T03:45:05.146Z,11
2018-05-23T03:46:07.147Z,11
2018-05-23T03:47:09.134Z,11
2018-05-23T03:48:11.515Z,11
2018-05-23T03:49:13.513Z,12
2018-05-23T03:50:15.504Z,12
2018-05-23T03:51:17.510Z,12
2018-05-23T03:52:19.496Z,12
2018-05-23T03:53:21.499Z,13
2018-05-23T03:54:23.488Z,14
2018-05-23T03:55:25.862Z,14
2018-05-23T03:56:27.796Z,14
2018-05-23T03:57:29.795Z,14
2018-05-23T03:58:31.782Z,14
2018-05-23T03:59:34.172Z,14
2018-05-23T04:00:36.452Z,14
2018-05-23T04:01:38.448Z,14
2018-05-23T04:02:40.438Z,14
2018-05-23T04:03:42.453Z,15
2018-05-23T04:04:44.466Z,15
2018-05-23T04:05:46.452Z,15
2018-05-23T04:06:48.441Z,15
2018-05-23T04:07:50.434Z,16
2018-05-23T04:08:52.438Z,16
2018-05-23T04:09:54.705Z,16
2018-05-23T04:10:56.700Z,16
2018-05-23T04:11:58.980Z,17
2018-05-23T04:13:00.978Z,17
2018-05-23T04:14:03.260Z,17
2018-05-23T04:15:05.548Z,17
2018-05-23T04:16:07.541Z,17
2018-05-23T04:17:09.538Z,17
2018-05-23T04:18:11.801Z,18
2018-05-23T04:19:13.805Z,18
2018-05-23T04:20:15.799Z,19
2018-05-23T04:21:17.799Z,19
2018-05-23T04:22:19.794Z,19
2018-05-23T04:23:22.182Z,20
2018-05-23T04:24:24.180Z,19
2018-05-23T04:25:26.161Z,20
2018-05-23T04:26:28.155Z,20
2018-05-23T04:27:30.450Z,20
2018-05-23T04:28:32.727Z,20
2018-05-23T04:29:35.008Z,21
2018-05-23T04:30:37.293Z,21
2018-05-23T04:31:39.292Z,21
2018-05-23T04:32:41.556Z,21
2018-05-23T04:33:43.550Z,22
2018-05-23T04:34:45.942Z,22
2018-05-23T04:35:47.959Z,22
2018-05-23T04:36:49.957Z,22
2018-05-23T04:37:51.957Z,23
2018-05-23T04:38:54.336Z,23
2018-05-23T04:39:56.340Z,24
2018-05-23T04:40:58.335Z,24
2018-05-23T04:42:00.334Z,25
2018-05-23T04:43:02.323Z,25
2018-05-23T04:44:04.316Z,26
2018-05-23T04:45:06.305Z,26
2018-05-23T04:46:08.584Z,27
2018-05-23T04:47:10.583Z,27
2018-05-23T04:48:12.861Z,28
2018-05-23T04:49:14.852Z,28
2018-05-23T04:50:16.848Z,28
2018-05-23T04:51:19.114Z,29
2018-05-23T04:52:21.120Z,29
2018-05-23T04:53:23.112Z,30
2018-05-23T04:54:25.416Z,30
2018-05-23T04:55:27.390Z,30
2018-05-23T04:56:29.379Z,30
2018-05-23T04:57:31.380Z,30
2018-05-23T04:58:33.753Z,30
2018-05-23T04:59:35.752Z,31
2018-05-23T05:00:37.753Z,31
2018-05-23T05:01:40.032Z,31
2018-05-23T05:02:42.022Z,31
2018-05-23T05:03:44.687Z,31
2018-05-23T05:04:46.962Z,32
2018-05-23T05:05:48.966Z,32
2018-05-23T05:06:50.949Z,32
2018-05-23T05:07:52.961Z,32
2018-05-23T05:08:55.244Z,32
2018-05-23T05:09:57.272Z,32
2018-05-23T05:10:59.237Z,32
2018-05-23T05:12:01.243Z,32
2018-05-23T05:13:03.535Z,32
2018-05-23T05:14:05.539Z,32
2018-05-23T05:15:07.806Z,32
2018-05-23T05:16:09.805Z,32
2018-05-23T05:17:11.816Z,32
2018-05-23T05:18:13.810Z,31
2018-05-23T05:19:16.183Z,31
2018-05-23T05:20:18.182Z,31
2018-05-23T05:21:20.184Z,31
2018-05-23T05:22:22.182Z,32
2018-05-23T05:23:24.458Z,32
2018-05-23T05:24:26.838Z,31
2018-05-23T05:25:28.842Z,31
2018-05-23T05:26:30.829Z,32
2018-05-23T05:27:33.108Z,32
2018-05-23T05:28:35.110Z,32
2018-05-23T05:29:37.113Z,32
2018-05-23T05:30:39.106Z,32
2018-05-23T05:31:41.120Z,32
2018-05-23T05:32:43.094Z,32
2018-05-23T05:33:45.088Z,33
2018-05-23T05:34:47.083Z,33
2018-05-23T05:35:49.368Z,33
2018-05-23T05:36:51.367Z,33
2018-05-23T05:37:53.365Z,34
2018-05-23T05:38:55.376Z,34
2018-05-23T05:39:57.345Z,35
2018-05-23T05:40:59.354Z,35
2018-05-23T05:42:01.913Z,35
2018-05-23T05:43:03.910Z,35
2018-05-23T05:44:05.909Z,35
2018-05-23T05:45:07.899Z,36
2018-05-23T05:46:09.889Z,36
2018-05-23T05:47:11.891Z,36
2018-05-23T05:48:13.909Z,36
2018-05-23T05:49:15.905Z,37
2018-05-23T05:50:17.898Z,37
2018-05-23T05:51:20.560Z,37
2018-05-23T05:52:22.558Z,37
2018-05-23T05:53:25.139Z,37
2018-05-23T05:54:27.137Z,38
2018-05-23T05:55:29.133Z,37
2018-05-23T05:56:31.130Z,37
2018-05-23T05:57:33.140Z,38
2018-05-23T05:58:35.140Z,38
2018-05-23T05:59:37.128Z,38
2018-05-23T06:00:39.416Z,39
2018-05-23T06:01:41.416Z,39
2018-05-23T06:02:43.709Z,39
2018-05-23T06:03:45.704Z,40
2018-05-23T06:04:47.698Z,41
2018-05-23T06:05:50.366Z,41
2018-05-23T06:06:52.360Z,42
2018-05-23T06:07:54.943Z,42
2018-05-23T06:08:57.326Z,43
2018-05-23T06:09:59.785Z,44
2018-05-23T06:11:01.748Z,44
2018-05-23T06:12:03.746Z,45
2018-05-23T06:13:06.130Z,45
2018-05-23T06:14:08.132Z,46
2018-05-23T06:15:10.125Z,47
2018-05-23T06:16:12.131Z,47
2018-05-23T06:17:14.116Z,48
2018-05-23T06:18:16.114Z,48
2018-05-23T06:19:18.108Z,48
2018-05-23T06:20:20.667Z,48
2018-05-23T06:21:22.673Z,49
2018-05-23T06:22:25.101Z,49
2018-05-23T06:23:27.038Z,49
2018-05-23T06:24:29.035Z,49
2018-05-23T06:25:31.039Z,49
2018-05-23T06:26:33.043Z,49
2018-05-23T06:27:35.324Z,50
2018-05-23T06:28:37.718Z,50
2018-05-23T06:29:39.718Z,50
2018-05-23T06:30:41.726Z,50
2018-05-23T06:31:44.088Z,50
2018-05-23T06:32:46.096Z,50
2018-05-23T06:33:48.097Z,50
2018-05-23T06:34:50.095Z,51
2018-05-23T06:35:52.101Z,50
2018-05-23T06:36:54.104Z,51
2018-05-23T06:37:56.493Z,51
2018-05-23T06:38:58.878Z,51
2018-05-23T06:40:01.245Z,51
2018-05-23T06:41:03.255Z,51
2018-05-23T06:42:05.539Z,51
2018-05-23T06:43:07.531Z,51
2018-05-23T06:44:09.534Z,51
2018-05-23T06:45:11.851Z,51
2018-05-23T06:46:13.827Z,51
2018-05-23T06:47:15.822Z,51
2018-05-23T06:48:17.818Z,52
2018-05-23T06:49:19.831Z,52
2018-05-23T06:50:21.827Z,52
2018-05-23T06:51:23.823Z,51
2018-05-23T06:52:25.829Z,51
2018-05-23T06:53:28.406Z,51
2018-05-23T06:54:30.796Z,52
2018-05-23T06:55:32.817Z,50
2018-05-23T06:56:34.802Z,50
2018-05-23T06:57:36.807Z,50
2018-05-23T06:58:38.804Z,51
2018-05-23T06:59:40.800Z,50
2018-05-23T07:00:42.814Z,50
2018-05-23T07:01:45.110Z,51
2018-05-23T07:02:47.415Z,51
2018-05-23T07:03:49.416Z,51
2018-05-23T07:04:51.699Z,51
2018-05-23T07:05:54.134Z,52
2018-05-23T07:06:56.106Z,51
2018-05-23T07:07:58.110Z,51
2018-05-23T07:09:00.119Z,51
2018-05-23T07:10:02.393Z,51
2018-05-23T07:11:04.483Z,53
2018-05-23T07:12:06.707Z,52
2018-05-23T07:13:08.704Z,51
2018-05-23T07:14:10.705Z,52
2018-05-23T07:15:12.706Z,53
2018-05-23T07:16:15.098Z,52
2018-05-23T07:17:17.099Z,52
2018-05-23T07:18:19.099Z,52
2018-05-23T07:19:21.114Z,52
2018-05-23T07:20:23.101Z,52
2018-05-23T07:21:25.402Z,52
2018-05-23T07:22:27.406Z,52
2018-05-23T07:23:29.409Z,53
2018-05-23T07:24:31.413Z,53
2018-05-23T07:25:33.412Z,52
2018-05-23T07:26:35.419Z,52
2018-05-23T07:27:37.420Z,53
2018-05-23T07:28:39.416Z,53
2018-05-23T07:29:41.426Z,53
2018-05-23T07:30:43.728Z,53
2018-05-23T07:31:45.759Z,53
2018-05-23T07:32:47.730Z,53
2018-05-23T07:33:49.737Z,53
2018-05-23T07:34:51.743Z,53
2018-05-23T07:35:54.037Z,53
2018-05-23T07:36:56.041Z,54
2018-05-23T07:37:58.051Z,53
2018-05-23T07:39:00.050Z,53
2018-05-23T07:40:02.057Z,54
2018-05-23T07:41:04.359Z,54
2018-05-23T07:42:06.360Z,54
2018-05-23T07:43:08.356Z,54
2018-05-23T07:44:10.639Z,55
2018-05-23T07:45:13.034Z,55
2018-05-23T07:46:15.045Z,54
2018-05-23T07:47:17.048Z,55
2018-05-23T07:48:19.058Z,55
2018-05-23T07:49:21.061Z,55
2018-05-23T07:50:23.074Z,55
2018-05-23T07:51:25.087Z,55
2018-05-23T07:52:27.383Z,55
2018-05-23T07:53:29.675Z,56
2018-05-23T07:54:32.065Z,56
2018-05-23T07:55:34.374Z,56
2018-05-23T07:56:36.830Z,56
2018-05-23T07:57:39.224Z,56
2018-05-23T07:58:41.267Z,56
2018-05-23T07:59:43.276Z,56
2018-05-23T08:00:45.279Z,56
2018-05-23T08:01:47.949Z,57
2018-05-23T08:02:50.245Z,57
2018-05-23T08:03:52.272Z,57
2018-05-23T08:04:54.781Z,57
2018-05-23T08:05:56.791Z,57
2018-05-23T08:06:58.805Z,57
2018-05-23T08:08:01.095Z,58
2018-05-23T08:09:03.095Z,58
2018-05-23T08:10:05.109Z,58
2018-05-23T08:11:07.119Z,59
2018-05-23T08:12:09.694Z,60
2018-05-23T08:13:11.700Z,59
2018-05-23T08:14:13.707Z,59
2018-05-23T08:15:15.720Z,59
2018-05-23T08:16:18.022Z,60
2018-05-23T08:17:20.041Z,60
2018-05-23T08:18:22.051Z,60
2018-05-23T08:19:24.059Z,62
2018-05-23T08:20:26.068Z,89
2018-05-23T08:21:28.074Z,128
2018-05-23T08:22:30.083Z,124
2018-05-23T08:23:32.091Z,141
2018-05-23T08:24:34.091Z,131
2018-05-23T08:25:36.103Z,140
2018-05-23T08:26:38.119Z,147
2018-05-23T08:27:40.125Z,151
2018-05-23T08:28:42.118Z,138
2018-05-23T08:29:44.604Z,144
2018-05-23T08:30:46.604Z,133
2018-05-23T08:31:48.597Z,218
2018-05-23T08:32:50.890Z,288
2018-05-23T08:33:53.185Z,309
2018-05-23T08:34:55.194Z,318
2018-05-23T08:35:57.196Z,330
2018-05-23T08:36:59.200Z,337
2018-05-23T08:38:01.210Z,365
2018-05-23T08:39:03.601Z,401
2018-05-23T08:40:05.606Z,437
2018-05-23T08:41:07.612Z,430
2018-05-23T08:42:09.624Z,415
2018-05-23T08:43:11.911Z,419
2018-05-23T08:44:13.928Z,398
2018-05-23T08:45:15.936Z,384
2018-05-23T08:46:17.942Z,386
2018-05-23T08:47:19.951Z,364
2018-05-23T08:48:21.953Z,385
2018-05-23T08:49:23.965Z,414
2018-05-23T08:50:25.962Z,406
2018-05-23T08:51:28.246Z,382
2018-05-23T08:52:30.552Z,420
2018-05-23T08:53:32.557Z,398
2018-05-23T08:54:34.569Z,476
2018-05-23T08:55:36.590Z,550
2018-05-23T08:56:39.283Z,518
2018-05-23T08:57:41.974Z,479
2018-05-23T08:58:43.981Z,493
2018-05-23T08:59:45.980Z,477
2018-05-23T09:00:47.990Z,431
2018-05-23T09:01:50.001Z,418
2018-05-23T09:02:52.407Z,432
2018-05-23T09:03:54.411Z,480
2018-05-23T09:04:56.506Z,503
2018-05-23T09:05:58.437Z,525
2018-05-23T09:07:00.453Z,469
2018-05-23T09:08:02.731Z,440
2018-05-23T09:09:04.735Z,444
2018-05-23T09:10:06.741Z,455
2018-05-23T09:11:08.756Z,475
2018-05-23T09:12:11.528Z,417
2018-05-23T09:13:13.408Z,399
2018-05-23T09:14:15.706Z,445
2018-05-23T09:15:18.009Z,465
2018-05-23T09:16:20.009Z,441
2018-05-23T09:17:22.326Z,455
2018-05-23T09:18:24.335Z,488
2018-05-23T09:19:26.343Z,424
2018-05-23T09:20:28.343Z,368
2018-05-23T09:21:30.737Z,402
2018-05-23T09:22:32.755Z,370
2018-05-23T09:23:34.761Z,379
2018-05-23T09:24:37.153Z,380
2018-05-23T09:25:39.164Z,395
2018-05-23T09:26:41.174Z,440
2018-05-23T09:27:43.181Z,400
2018-05-23T09:28:45.197Z,388
2018-05-23T09:29:47.203Z,390
2018-05-23T09:30:49.223Z,368
2018-05-23T09:31:51.611Z,387
2018-05-23T09:32:53.631Z,405
2018-05-23T09:33:55.642Z,414
2018-05-23T09:34:57.655Z,435
2018-05-23T09:35:59.665Z,487
2018-05-23T09:37:01.672Z,515
2018-05-23T09:38:03.677Z,536
2018-05-23T09:39:05.699Z,550
2018-05-23T09:40:07.698Z,530
2018-05-23T09:41:09.997Z,545
2018-05-23T09:42:12.319Z,514
2018-05-23T09:43:14.328Z,465
2018-05-23T09:44:16.342Z,453
2018-05-23T09:45:18.643Z,516
2018-05-23T09:46:20.852Z,435
2018-05-23T09:47:22.866Z,407
2018-05-23T09:48:25.266Z,400
2018-05-23T09:49:27.291Z,422
2018-05-23T09:50:29.300Z,498
2018-05-23T09:51:31.314Z,516
2018-05-23T09:52:33.511Z,527
2018-05-23T09:53:35.526Z,534
2018-05-23T09:54:37.555Z,494
2018-05-23T09:55:39.566Z,463
2018-05-23T09:56:41.588Z,484
2018-05-23T09:57:43.635Z,436
2018-05-23T09:58:45.639Z,517
2018-05-23T09:59:47.661Z,509
2018-05-23T10:00:49.681Z,512
2018-05-23T10:01:51.786Z,496
2018-05-23T10:02:53.975Z,533
2018-05-23T10:03:56.311Z,576
2018-05-23T10:04:58.417Z,552
2018-05-23T10:06:00.447Z,584
2018-05-23T10:07:02.496Z,567
2018-05-23T10:08:05.346Z,623
2018-05-23T10:09:07.450Z,633
2018-05-23T10:10:10.739Z,528
2018-05-23T10:11:12.781Z,552
2018-05-23T10:12:15.406Z,516
2018-05-23T10:13:18.310Z,526
2018-05-23T10:14:20.686Z,460
2018-05-23T10:15:23.414Z,500
2018-05-23T10:16:25.947Z,508
2018-05-23T10:17:28.027Z,512
2018-05-23T10:18:30.698Z,590
2018-05-23T10:19:33.203Z,592
2018-05-23T10:20:36.111Z,551
2018-05-23T10:21:38.918Z,596
2018-05-23T10:22:40.952Z,520
2018-05-23T10:23:43.032Z,503
2018-05-23T10:24:46.060Z,519
2018-05-23T10:25:48.265Z,521
2018-05-23T10:26:50.297Z,575
2018-05-23T10:27:52.310Z,552
2018-05-23T10:28:54.332Z,527
2018-05-23T10:29:56.346Z,510
2018-05-23T10:30:58.647Z,547
2018-05-23T10:32:00.952Z,534
2018-05-23T10:33:02.972Z,495
2018-05-23T10:34:04.982Z,534
2018-05-23T10:35:06.999Z,526
2018-05-23T10:36:09.015Z,528
2018-05-23T10:37:11.029Z,524
2018-05-23T10:38:13.035Z,558
2018-05-23T10:39:15.065Z,558
2018-05-23T10:40:17.082Z,568
2018-05-23T10:41:19.096Z,610
2018-05-23T10:42:21.114Z,586
2018-05-23T10:43:23.140Z,514
2018-05-23T10:44:25.165Z,518
2018-05-23T10:45:27.202Z,516
2018-05-23T10:46:29.502Z,563
2018-05-23T10:47:31.530Z,590
2018-05-23T10:48:33.547Z,515
2018-05-23T10:49:35.568Z,447
2018-05-23T10:50:37.978Z,539
2018-05-23T10:51:40.091Z,558
2018-05-23T10:52:42.016Z,513
2018-05-23T10:53:44.308Z,516
2018-05-23T10:54:46.332Z,476
2018-05-23T10:55:48.366Z,483
2018-05-23T10:56:50.384Z,540
2018-05-23T10:57:52.391Z,575
2018-05-23T10:58:54.410Z,522
2018-05-23T10:59:56.428Z,519
2018-05-23T11:00:58.457Z,582
2018-05-23T11:02:01.085Z,532
2018-05-23T11:03:03.528Z,518
2018-05-23T11:04:05.543Z,535
2018-05-23T11:05:07.564Z,434
2018-05-23T11:06:09.572Z,404
2018-05-23T11:07:11.598Z,566
2018-05-23T11:08:13.620Z,607
2018-05-23T11:09:15.638Z,526
2018-05-23T11:10:17.654Z,562
2018-05-23T11:11:19.972Z,633
2018-05-23T11:12:21.987Z,534
2018-05-23T11:13:24.008Z,467
2018-05-23T11:14:26.020Z,550
2018-05-23T11:15:28.040Z,613
2018-05-23T11:16:30.058Z,587
2018-05-23T11:17:32.071Z,638
2018-05-23T11:18:34.475Z,622
2018-05-23T11:19:37.279Z,584
2018-05-23T11:20:39.572Z,640
2018-05-23T11:21:41.588Z,585
2018-05-23T11:22:43.609Z,609
2018-05-23T11:23:45.614Z,636
2018-05-23T11:24:47.922Z,639
2018-05-23T11:25:49.943Z,621
2018-05-23T11:26:51.977Z,637
2018-05-23T11:27:53.995Z,639
2018-05-23T11:28:56.003Z,626
2018-05-23T11:29:58.027Z,656
2018-05-23T11:31:00.043Z,642
2018-05-23T11:32:02.061Z,690
2018-05-23T11:33:04.082Z,665
2018-05-23T11:34:06.091Z,630
2018-05-23T11:35:08.407Z,628
2018-05-23T11:36:10.432Z,681
2018-05-23T11:37:12.450Z,686
2018-05-23T11:38:14.461Z,660
2018-05-23T11:39:16.481Z,711
2018-05-23T11:40:18.785Z,730
2018-05-23T11:41:20.799Z,663
2018-05-23T11:42:22.814Z,653
2018-05-23T11:43:25.035Z,604
2018-05-23T11:44:27.054Z,563
2018-05-23T11:45:29.066Z,526
2018-05-23T11:46:31.108Z,500
2018-05-23T11:47:33.116Z,601
2018-05-23T11:48:35.144Z,569
2018-05-23T11:49:37.163Z,586
2018-05-23T11:50:39.194Z,581
2018-05-23T11:51:41.211Z,604
2018-05-23T11:52:43.241Z,545
2018-05-23T11:53:45.537Z,155
2018-05-23T11:54:47.677Z,547
2018-05-23T11:55:49.583Z,328
2018-05-23T11:56:51.609Z,570
2018-05-23T11:57:53.630Z,584
2018-05-23T11:58:55.651Z,567
2018-05-23T11:59:57.682Z,507
2018-05-23T12:00:59.695Z,474
2018-05-23T12:02:02.000Z,501
2018-05-23T12:03:04.025Z,549
2018-05-23T12:04:06.431Z,598
2018-05-23T12:05:08.453Z,580
2018-05-23T12:06:10.470Z,578
2018-05-23T12:07:12.495Z,554
2018-05-23T12:08:14.518Z,563
2018-05-23T12:09:16.535Z,521
2018-05-23T12:10:18.579Z,554
2018-05-23T12:11:20.575Z,692
2018-05-23T12:12:22.591Z,682
2018-05-23T12:13:24.612Z,175
2018-05-23T12:14:26.634Z,499
2018-05-23T12:15:28.932Z,280
2018-05-23T12:16:30.964Z,636
2018-05-23T12:17:32.979Z,437
2018-05-23T12:18:35.284Z,600
2018-05-23T12:19:37.348Z,601
2018-05-23T12:20:39.706Z,599
2018-05-23T12:21:41.727Z,567
2018-05-23T12:22:43.749Z,603
2018-05-23T12:23:45.770Z,604
2018-05-23T12:24:47.793Z,579
2018-05-23T12:25:50.380Z,249
2018-05-23T12:26:52.403Z,570
2018-05-23T12:27:54.429Z,632
2018-05-23T12:28:56.837Z,636
2018-05-23T12:29:59.164Z,651
2018-05-23T12:31:01.753Z,621
2018-05-23T12:32:03.775Z,570
2018-05-23T12:33:05.796Z,543
2018-05-23T12:34:07.815Z,548
2018-05-23T12:35:10.134Z,540
2018-05-23T12:36:12.150Z,511
2018-05-23T12:37:14.172Z,548
2018-05-23T12:38:16.190Z,536
2018-05-23T12:39:18.489Z,507
2018-05-23T12:40:20.502Z,530
2018-05-23T12:41:22.527Z,509
2018-05-23T12:42:24.551Z,488
2018-05-23T12:43:26.568Z,432
2018-05-23T12:44:28.583Z,150
2018-05-23T12:45:30.617Z,543
2018-05-23T12:46:32.632Z,617
2018-05-23T12:47:34.650Z,206
2018-05-23T12:48:36.667Z,181
2018-05-23T12:49:38.693Z,148
2018-05-23T12:50:40.711Z,312
2018-05-23T12:51:43.126Z,180
2018-05-23T12:52:45.149Z,535
2018-05-23T12:53:47.457Z,323
2018-05-23T12:54:49.766Z,600
2018-05-23T12:55:52.359Z,147
2018-05-23T12:56:54.389Z,498
2018-05-23T12:57:56.407Z,441
2018-05-23T12:58:58.433Z,492
2018-05-23T13:00:00.458Z,523
2018-05-23T13:01:03.038Z,462
2018-05-23T13:02:05.063Z,503
2018-05-23T13:03:07.077Z,508
2018-05-23T13:04:09.099Z,485
2018-05-23T13:05:11.116Z,526
2018-05-23T13:06:13.126Z,507
2018-05-23T13:07:15.141Z,478
2018-05-23T13:08:17.483Z,494
2018-05-23T13:09:19.551Z,498
2018-05-23T13:10:22.302Z,554
2018-05-23T13:11:24.369Z,528
2018-05-23T13:12:26.855Z,566
2018-05-23T13:13:28.881Z,638
2018-05-23T13:14:30.943Z,558
2018-05-23T13:15:33.013Z,556
2018-05-23T13:16:35.074Z,487
2018-05-23T13:17:37.140Z,495
2018-05-23T13:18:39.213Z,505
2018-05-23T13:19:41.867Z,491
2018-05-23T13:20:44.216Z,491
2018-05-23T13:21:46.578Z,466
2018-05-23T13:22:48.642Z,425
2018-05-23T13:23:51.023Z,405
2018-05-23T13:24:53.084Z,414
2018-05-23T13:25:55.549Z,435
2018-05-23T13:27:01.247Z,421
2018-05-23T13:28:03.343Z,415
2018-05-23T13:29:05.408Z,426
2018-05-23T13:30:07.477Z,498
2018-05-23T13:31:09.828Z,466
2018-05-23T13:32:11.921Z,464
2018-05-23T13:33:14.000Z,526
2018-05-23T13:34:16.058Z,486
2018-05-23T13:35:18.155Z,436
2018-05-23T13:36:20.218Z,236
2018-05-23T13:37:22.311Z,182
2018-05-23T13:38:24.374Z,444
2018-05-23T13:39:26.887Z,215
2018-05-23T13:40:28.996Z,302
2018-05-23T13:41:31.049Z,469
2018-05-23T13:42:33.136Z,428
2018-05-23T13:43:35.204Z,433
2018-05-23T13:44:37.289Z,416
2018-05-23T13:45:39.352Z,442
2018-05-23T13:46:41.413Z,461
2018-05-23T13:47:43.612Z,509
2018-05-23T13:48:45.811Z,463
2018-05-23T13:49:47.951Z,454
2018-05-23T13:50:50.931Z,460
2018-05-23T13:51:53.318Z,475
2018-05-23T13:52:55.661Z,457
2018-05-23T13:53:57.745Z,422
2018-05-23T13:54:59.816Z,412
2018-05-23T13:56:01.881Z,393
2018-05-23T13:57:04.308Z,372
2018-05-23T13:58:06.390Z,433
2018-05-23T13:59:08.489Z,437
2018-05-23T14:00:10.547Z,397
2018-05-23T14:01:12.610Z,362
2018-05-23T14:02:15.127Z,352
2018-05-23T14:03:17.190Z,388
2018-05-23T14:04:19.572Z,399
2018-05-23T14:05:21.681Z,381
2018-05-23T14:06:24.323Z,374
2018-05-23T14:07:26.404Z,376
2018-05-23T14:08:28.467Z,361
2018-05-23T14:09:30.588Z,359
2018-05-23T14:10:32.950Z,341
2018-05-23T14:11:35.058Z,403
2018-05-23T14:12:37.214Z,414
2018-05-23T14:13:39.287Z,411
2018-05-23T14:14:41.449Z,374
2018-05-23T14:15:43.683Z,384
2018-05-23T14:16:46.201Z,411
2018-05-23T14:17:48.270Z,416
2018-05-23T14:18:50.736Z,403
2018-05-23T14:19:52.811Z,412
2018-05-23T14:20:55.223Z,338
2018-05-23T14:21:57.235Z,360
2018-05-23T14:22:59.306Z,372
2018-05-23T14:24:01.377Z,375
2018-05-23T14:25:03.467Z,397
2018-05-23T14:26:05.519Z,372
2018-05-23T14:27:07.590Z,388
2018-05-23T14:28:09.662Z,385
2018-05-23T14:29:11.729Z,421
2018-05-23T14:30:13.794Z,394
2018-05-23T14:31:15.879Z,387
2018-05-23T14:32:17.948Z,395
2018-05-23T14:33:20.007Z,391
2018-05-23T14:34:22.078Z,421
2018-05-23T14:35:24.153Z,406
2018-05-23T14:36:26.226Z,369
2018-05-23T14:37:28.296Z,381
2018-05-23T14:38:30.760Z,368
2018-05-23T14:39:32.835Z,376
2018-05-23T14:40:34.894Z,381